Time,TemperatureF,DewpointF,PressureIn,WindDirection,WindDirectionDegrees,WindSpeedMPH,WindSpeedGustMPH,Humidity,HourlyPrecipIn,Conditions,Clouds,dailyrainin,SoftwareType,DateUTC
2013-01-11 00:01:00,31.5,24.2,30.50,NNW,327,1.0,19.0,74,0.00,,,0.00,Wunderground v.1.15,2013-01-11 05:01:00,
2013-01-11 00:02:00,31.4,24.1,30.50,NNW,327,1.0,19.0,74,0.00,,,0.00,Wunderground v.1.15,2013-01-11 05:02:00,
2013-01-11 00:04:00,31.3,24.0,30.50,NNW,327,0.0,19.0,74,0.00,,,0.00,Wunderground v.1.15,2013-01-11 05:04:00,
2013-01-11 00:05:00,31.3,24.3,30.50,NNW,327,0.0,19.0,75,0.00,,,0.00,Wunderground v.1.15,2013-01-11 05:05:00,
2013-01-11 00:11:00,30.9,23.9,30.50,NNW,327,0.0,19.0,75,0.00,,,0.00,Wunderground v.1.15,2013-01-11 05:11:00,
2013-01-11 00:17:00,30.7,24.0,30.50,NW,326,0.0,19.0,76,0.00,,,0.00,Wunderground v.1.15,2013-01-11 05:17:00,
2013-01-11 00:22:00,30.4,23.7,30.50,NNW,327,0.0,19.0,76,0.00,,,0.00,Wunderground v.1.15,2013-01-11 05:22:00,
2013-01-11 00:28:00,29.9,23.9,30.50,NW,326,0.0,19.0,78,0.00,,,0.00,Wunderground v.1.15,2013-01-11 05:28:00,
2013-01-11 00:34:00,29.4,23.7,30.50,NW,326,0.0,19.0,79,0.00,,,0.00,Wunderground v.1.15,2013-01-11 05:34:00,
2013-01-11 00:39:00,29.4,23.7,30.51,NW,326,0.0,19.0,79,0.00,,,0.00,Wunderground v.1.15,2013-01-11 05:39:00,
2013-01-11 00:45:00,29.3,23.6,30.51,NW,324,0.0,19.0,79,0.00,,,0.00,Wunderground v.1.15,2013-01-11 05:45:00,
2013-01-11 00:51:00,29.3,23.9,30.50,NW,324,0.0,19.0,80,0.00,,,0.00,Wunderground v.1.15,2013-01-11 05:51:00,
2013-01-11 00:56:00,29.9,24.2,30.50,NW,324,1.0,19.0,79,0.00,,,0.00,Wunderground v.1.15,2013-01-11 05:56:00,
2013-01-11 01:02:00,30.5,24.5,30.50,NW,324,1.0,19.0,78,0.00,,,0.00,Wunderground v.1.15,2013-01-11 06:02:00,
2013-01-11 01:08:00,30.9,24.2,30.50,NW,324,0.0,19.0,76,0.00,,,0.00,Wunderground v.1.15,2013-01-11 06:08:00,
2013-01-11 01:14:00,30.8,24.1,30.50,NW,324,0.0,19.0,76,0.00,,,0.00,Wunderground v.1.15,2013-01-11 06:14:00,
2013-01-11 01:19:00,30.5,24.5,30.50,NW,324,0.0,19.0,78,0.00,,,0.00,Wunderground v.1.15,2013-01-11 06:19:00,
2013-01-11 01:25:00,30.0,24.0,30.50,NW,324,0.0,19.0,78,0.00,,,0.00,Wunderground v.1.15,2013-01-11 06:25:00,
2013-01-11 01:31:00,29.6,24.5,30.50,NW,324,0.0,19.0,81,0.00,,,0.00,Wunderground v.1.15,2013-01-11 06:31:00,
2013-01-11 01:37:00,29.2,23.8,30.49,NW,324,0.0,19.0,80,0.00,,,0.00,Wunderground v.1.15,2013-01-11 06:37:00,
2013-01-11 01:42:00,29.0,23.9,30.49,NW,324,0.0,19.0,81,0.00,,,0.00,Wunderground v.1.15,2013-01-11 06:42:00,
2013-01-11 01:48:00,29.0,23.9,30.49,NW,324,0.0,19.0,81,0.00,,,0.00,Wunderground v.1.15,2013-01-11 06:48:00,
2013-01-11 01:54:00,28.6,23.5,30.49,NW,324,0.0,19.0,81,0.00,,,0.00,Wunderground v.1.15,2013-01-11 06:54:00,
2013-01-11 02:00:00,27.9,23.1,30.50,NW,324,0.0,19.0,82,0.00,,,0.00,Wunderground v.1.15,2013-01-11 07:00:00,
2013-01-11 02:06:00,27.5,23.0,30.49,NW,324,0.0,19.0,83,0.00,,,0.00,Wunderground v.1.15,2013-01-11 07:06:00,
2013-01-11 02:12:00,27.2,23.0,30.49,NW,324,0.0,19.0,84,0.00,,,0.00,Wunderground v.1.15,2013-01-11 07:12:00,
2013-01-11 02:18:00,27.0,23.1,30.50,NW,324,0.0,19.0,85,0.00,,,0.00,Wunderground v.1.15,2013-01-11 07:18:00,
2013-01-11 02:24:00,26.9,23.3,30.50,NW,324,0.0,19.0,86,0.00,,,0.00,Wunderground v.1.15,2013-01-11 07:24:00,
2013-01-11 02:29:00,26.9,23.3,30.50,NW,324,0.0,19.0,86,0.00,,,0.00,Wunderground v.1.15,2013-01-11 07:29:00,
2013-01-11 02:35:00,26.8,23.2,30.49,NW,324,0.0,19.0,86,0.00,,,0.00,Wunderground v.1.15,2013-01-11 07:35:00,
2013-01-11 02:41:00,26.6,23.0,30.49,NW,324,0.0,19.0,86,0.00,,,0.00,Wunderground v.1.15,2013-01-11 07:41:00,
2013-01-11 02:47:00,26.5,23.2,30.49,NW,324,0.0,19.0,87,0.00,,,0.00,Wunderground v.1.15,2013-01-11 07:47:00,
2013-01-11 02:52:00,26.5,23.2,30.49,NW,324,0.0,19.0,87,0.00,,,0.00,Wunderground v.1.15,2013-01-11 07:52:00,
2013-01-11 02:58:00,26.5,23.2,30.49,NW,324,0.0,19.0,87,0.00,,,0.00,Wunderground v.1.15,2013-01-11 07:58:00,
2013-01-11 03:04:00,26.2,22.9,30.49,NW,324,0.0,19.0,87,0.00,,,0.00,Wunderground v.1.15,2013-01-11 08:04:00,
2013-01-11 03:10:00,26.1,22.8,30.49,NW,324,0.0,19.0,87,0.00,,,0.00,Wunderground v.1.15,2013-01-11 08:10:00,
2013-01-11 03:16:00,26.2,22.9,30.49,NW,324,0.0,19.0,87,0.00,,,0.00,Wunderground v.1.15,2013-01-11 08:16:00,
2013-01-11 03:22:00,26.1,22.8,30.49,NW,324,0.0,19.0,87,0.00,,,0.00,Wunderground v.1.15,2013-01-11 08:22:00,
2013-01-11 03:28:00,25.8,22.5,30.49,NW,324,0.0,19.0,87,0.00,,,0.00,Wunderground v.1.15,2013-01-11 08:28:00,
2013-01-11 03:33:00,25.8,22.7,30.48,NW,324,0.0,19.0,88,0.00,,,0.00,Wunderground v.1.15,2013-01-11 08:33:00,
2013-01-11 03:39:00,26.0,22.9,30.48,NW,324,0.0,19.0,88,0.00,,,0.00,Wunderground v.1.15,2013-01-11 08:39:00,
2013-01-11 03:45:00,26.0,22.9,30.48,NW,324,0.0,19.0,88,0.00,,,0.00,Wunderground v.1.15,2013-01-11 08:45:00,
2013-01-11 03:51:00,26.0,22.7,30.48,NW,324,0.0,19.0,87,0.00,,,0.00,Wunderground v.1.15,2013-01-11 08:51:00,
2013-01-11 03:56:00,25.9,22.8,30.47,NW,324,0.0,19.0,88,0.00,,,0.00,Wunderground v.1.15,2013-01-11 08:56:00,
2013-01-11 04:02:00,25.8,22.7,30.47,NW,324,0.0,19.0,88,0.00,,,0.00,Wunderground v.1.15,2013-01-11 09:02:00,
2013-01-11 04:08:00,25.8,22.7,30.47,NW,324,0.0,19.0,88,0.00,,,0.00,Wunderground v.1.15,2013-01-11 09:08:00,
2013-01-11 04:14:00,25.6,22.5,30.47,NW,324,0.0,19.0,88,0.00,,,0.00,Wunderground v.1.15,2013-01-11 09:14:00,
2013-01-11 04:20:00,25.6,22.5,30.47,NW,324,0.0,19.0,88,0.00,,,0.00,Wunderground v.1.15,2013-01-11 09:20:00,
2013-01-11 04:26:00,25.5,22.4,30.46,NW,323,0.0,19.0,88,0.00,,,0.00,Wunderground v.1.15,2013-01-11 09:26:00,
2013-01-11 04:32:00,25.4,22.3,30.45,NW,324,0.0,19.0,88,0.00,,,0.00,Wunderground v.1.15,2013-01-11 09:32:00,
2013-01-11 04:37:00,25.5,23.0,30.46,West,268,1.0,19.0,90,0.00,,,0.00,Wunderground v.1.15,2013-01-11 09:37:00,
2013-01-11 04:43:00,25.8,23.0,30.46,West,268,1.0,19.0,89,0.00,,,0.00,Wunderground v.1.15,2013-01-11 09:43:00,
2013-01-11 04:49:00,25.8,23.0,30.46,WNW,284,0.0,19.0,89,0.00,,,0.00,Wunderground v.1.15,2013-01-11 09:49:00,
2013-01-11 04:55:00,25.8,22.7,30.47,WNW,284,0.0,19.0,88,0.00,,,0.00,Wunderground v.1.15,2013-01-11 09:55:00,
2013-01-11 05:00:00,25.7,22.6,30.47,WNW,284,0.0,19.0,88,0.00,,,0.00,Wunderground v.1.15,2013-01-11 10:00:00,
2013-01-11 05:06:00,25.7,22.9,30.47,WNW,284,0.0,19.0,89,0.00,,,0.00,Wunderground v.1.15,2013-01-11 10:06:00,
2013-01-11 05:12:00,25.6,22.5,30.47,WNW,284,0.0,19.0,88,0.00,,,0.00,Wunderground v.1.15,2013-01-11 10:12:00,
2013-01-11 05:18:00,25.7,22.9,30.47,WNW,284,0.0,19.0,89,0.00,,,0.00,Wunderground v.1.15,2013-01-11 10:18:00,
2013-01-11 05:24:00,25.5,22.7,30.47,WNW,284,0.0,19.0,89,0.00,,,0.00,Wunderground v.1.15,2013-01-11 10:24:00,
2013-01-11 05:30:00,25.4,22.6,30.48,WNW,285,0.0,19.0,89,0.00,,,0.00,Wunderground v.1.15,2013-01-11 10:30:00,
2013-01-11 05:36:00,25.3,22.5,30.47,WNW,284,0.0,19.0,89,0.00,,,0.00,Wunderground v.1.15,2013-01-11 10:36:00,
2013-01-11 05:41:00,25.3,22.5,30.48,WNW,284,0.0,19.0,89,0.00,,,0.00,Wunderground v.1.15,2013-01-11 10:41:00,
2013-01-11 05:47:00,25.2,22.4,30.48,WNW,284,0.0,19.0,89,0.00,,,0.00,Wunderground v.1.15,2013-01-11 10:47:00,
2013-01-11 05:53:00,25.2,22.7,30.48,WNW,284,0.0,19.0,90,0.00,,,0.00,Wunderground v.1.15,2013-01-11 10:53:00,
2013-01-11 05:59:00,25.2,22.7,30.49,WNW,284,0.0,19.0,90,0.00,,,0.00,Wunderground v.1.15,2013-01-11 10:59:00,
2013-01-11 06:04:00,25.2,22.7,30.49,WNW,284,0.0,19.0,90,0.00,,,0.00,Wunderground v.1.15,2013-01-11 11:04:00,
2013-01-11 06:10:00,25.2,22.7,30.49,WNW,285,0.0,19.0,90,0.00,,,0.00,Wunderground v.1.15,2013-01-11 11:10:00,
2013-01-11 06:16:00,25.1,22.6,30.49,WNW,284,0.0,19.0,90,0.00,,,0.00,Wunderground v.1.15,2013-01-11 11:16:00,
2013-01-11 06:22:00,25.0,22.5,30.49,WNW,284,0.0,19.0,90,0.00,,,0.00,Wunderground v.1.15,2013-01-11 11:22:00,
2013-01-11 06:28:00,25.0,22.7,30.49,WNW,284,0.0,19.0,91,0.00,,,0.00,Wunderground v.1.15,2013-01-11 11:28:00,
2013-01-11 06:34:00,25.0,22.7,30.49,WNW,284,0.0,19.0,91,0.00,,,0.00,Wunderground v.1.15,2013-01-11 11:34:00,
2013-01-11 06:40:00,25.0,22.7,30.49,WNW,285,0.0,19.0,91,0.00,,,0.00,Wunderground v.1.15,2013-01-11 11:40:00,
2013-01-11 06:45:00,25.0,22.7,30.49,WNW,284,0.0,19.0,91,0.00,,,0.00,Wunderground v.1.15,2013-01-11 11:45:00,
2013-01-11 06:51:00,25.1,22.8,30.49,WNW,284,0.0,19.0,91,0.00,,,0.00,Wunderground v.1.15,2013-01-11 11:51:00,
2013-01-11 06:57:00,25.1,22.8,30.50,WNW,285,0.0,19.0,91,0.00,,,0.00,Wunderground v.1.15,2013-01-11 11:57:00,
2013-01-11 07:03:00,25.2,23.2,30.50,WNW,284,0.0,19.0,92,0.00,,,0.00,Wunderground v.1.15,2013-01-11 12:03:00,
2013-01-11 07:09:00,25.5,23.5,30.50,WNW,285,0.0,19.0,92,0.00,,,0.00,Wunderground v.1.15,2013-01-11 12:09:00,
2013-01-11 07:15:00,25.6,23.6,30.50,WNW,284,0.0,19.0,92,0.00,,,0.00,Wunderground v.1.15,2013-01-11 12:15:00,
2013-01-11 07:21:00,25.6,23.6,30.50,WNW,284,0.0,19.0,92,0.00,,,0.00,Wunderground v.1.15,2013-01-11 12:21:00,
2013-01-11 07:27:00,25.7,23.7,30.50,WNW,284,0.0,19.0,92,0.00,,,0.00,Wunderground v.1.15,2013-01-11 12:27:00,
2013-01-11 07:32:00,25.7,23.4,30.50,WNW,285,0.0,19.0,91,0.00,,,0.00,Wunderground v.1.15,2013-01-11 12:32:00,
2013-01-11 07:38:00,25.8,23.8,30.49,WNW,285,0.0,19.0,92,0.00,,,0.00,Wunderground v.1.15,2013-01-11 12:38:00,
2013-01-11 07:44:00,25.9,23.9,30.49,WNW,284,0.0,19.0,92,0.00,,,0.00,Wunderground v.1.15,2013-01-11 12:44:00,
2013-01-11 07:50:00,26.0,24.0,30.50,WNW,284,0.0,19.0,92,0.00,,,0.00,Wunderground v.1.15,2013-01-11 12:50:00,
2013-01-11 07:55:00,26.0,24.0,30.50,WNW,284,0.0,19.0,92,0.00,,,0.00,Wunderground v.1.15,2013-01-11 12:55:00,
2013-01-11 08:00:00,26.1,24.1,30.50,WNW,285,0.0,0.0,92,0.00,,,0.00,Wunderground v.1.15,2013-01-11 13:00:00,
2013-01-11 08:06:00,26.3,24.3,30.50,WNW,284,0.0,0.0,92,0.00,,,0.00,Wunderground v.1.15,2013-01-11 13:06:00,
2013-01-11 08:12:00,26.6,24.3,30.50,WNW,284,0.0,0.0,91,0.00,,,0.00,Wunderground v.1.15,2013-01-11 13:12:00,
2013-01-11 08:17:00,26.8,24.5,30.50,WNW,284,0.0,0.0,91,0.00,,,0.00,Wunderground v.1.15,2013-01-11 13:17:00,
2013-01-11 08:23:00,27.0,24.7,30.50,WNW,284,0.0,0.0,91,0.00,,,0.00,Wunderground v.1.15,2013-01-11 13:23:00,
2013-01-11 08:29:00,27.2,24.9,30.50,WNW,285,0.0,0.0,91,0.00,,,0.00,Wunderground v.1.15,2013-01-11 13:29:00,
2013-01-11 08:35:00,27.6,25.1,30.50,WNW,284,0.0,1.0,90,0.00,,,0.00,Wunderground v.1.15,2013-01-11 13:35:00,
2013-01-11 08:41:00,28.1,25.5,30.49,WNW,285,0.0,1.0,90,0.00,,,0.00,Wunderground v.1.15,2013-01-11 13:41:00,
2013-01-11 08:47:00,28.7,25.9,30.49,WNW,284,0.0,1.0,89,0.00,,,0.00,Wunderground v.1.15,2013-01-11 13:47:00,
2013-01-11 08:53:00,29.3,25.6,30.49,WNW,285,0.0,1.0,86,0.00,,,0.00,Wunderground v.1.15,2013-01-11 13:53:00,
2013-01-11 08:58:00,29.7,25.7,30.49,WNW,284,0.0,1.0,85,0.00,,,0.00,Wunderground v.1.15,2013-01-11 13:58:00,
2013-01-11 09:04:00,30.1,26.1,30.48,WNW,284,0.0,1.0,85,0.00,,,0.00,Wunderground v.1.15,2013-01-11 14:04:00,
2013-01-11 09:10:00,30.7,26.4,30.48,WNW,285,0.0,1.0,84,0.00,,,0.00,Wunderground v.1.15,2013-01-11 14:10:00,
2013-01-11 09:16:00,31.2,26.3,30.48,WNW,284,0.0,1.0,82,0.00,,,0.00,Wunderground v.1.15,2013-01-11 14:16:00,
2013-01-11 09:21:00,31.8,26.6,30.48,WNW,284,0.0,1.0,81,0.00,,,0.00,Wunderground v.1.15,2013-01-11 14:21:00,
2013-01-11 09:27:00,32.5,26.7,30.48,East,84,1.0,3.0,79,0.00,,,0.00,Wunderground v.1.15,2013-01-11 14:27:00,
2013-01-11 09:33:00,33.2,26.8,30.48,East,81,1.0,2.0,77,0.00,,,0.00,Wunderground v.1.15,2013-01-11 14:33:00,
2013-01-11 09:39:00,33.8,27.4,30.48,East,81,0.0,2.0,77,0.00,,,0.00,Wunderground v.1.15,2013-01-11 14:39:00,
2013-01-11 09:45:00,34.2,27.4,30.48,East,81,0.0,1.0,76,0.00,,,0.00,Wunderground v.1.15,2013-01-11 14:45:00,
2013-01-11 09:51:00,34.8,28.0,30.48,East,81,0.0,1.0,76,0.00,,,0.00,Wunderground v.1.15,2013-01-11 14:51:00,
2013-01-11 09:57:00,35.4,28.3,30.48,East,81,0.0,1.0,75,0.00,,,0.00,Wunderground v.1.15,2013-01-11 14:57:00,
2013-01-11 10:02:00,35.9,28.4,30.48,East,81,0.0,1.0,74,0.00,,,0.00,Wunderground v.1.15,2013-01-11 15:02:00,
2013-01-11 10:08:00,35.9,28.1,30.48,East,81,0.0,1.0,73,0.00,,,0.00,Wunderground v.1.15,2013-01-11 15:08:00,
2013-01-11 10:14:00,36.3,28.8,30.47,East,81,0.0,1.0,74,0.00,,,0.00,Wunderground v.1.15,2013-01-11 15:14:00,
2013-01-11 10:20:00,37.0,29.5,30.48,East,85,0.0,1.0,74,0.00,,,0.00,Wunderground v.1.15,2013-01-11 15:20:00,
2013-01-11 10:25:00,37.3,29.1,30.47,East,85,0.0,1.0,72,0.00,,,0.00,Wunderground v.1.15,2013-01-11 15:25:00,
2013-01-11 10:31:00,37.6,29.7,30.47,East,85,0.0,1.0,73,0.00,,,0.00,Wunderground v.1.15,2013-01-11 15:31:00,
2013-01-11 10:37:00,37.9,29.7,30.47,East,85,0.0,1.0,72,0.00,,,0.00,Wunderground v.1.15,2013-01-11 15:37:00,
2013-01-11 10:43:00,38.4,30.2,30.46,East,85,0.0,1.0,72,0.00,,,0.00,Wunderground v.1.15,2013-01-11 15:43:00,
2013-01-11 10:49:00,38.9,30.3,30.45,East,85,0.0,1.0,71,0.00,,,0.00,Wunderground v.1.15,2013-01-11 15:49:00,
2013-01-11 10:55:00,39.3,30.7,30.45,ESE,112,0.0,3.0,71,0.00,,,0.00,Wunderground v.1.15,2013-01-11 15:55:00,
2013-01-11 11:01:00,39.4,30.8,30.44,South,174,1.0,1.0,71,0.00,,,0.00,Wunderground v.1.15,2013-01-11 16:01:00,
2013-01-11 11:06:00,39.6,30.6,30.44,South,174,1.0,2.0,70,0.00,,,0.00,Wunderground v.1.15,2013-01-11 16:06:00,
2013-01-11 11:12:00,39.6,30.6,30.43,South,185,2.0,2.0,70,0.00,,,0.00,Wunderground v.1.15,2013-01-11 16:12:00,
2013-01-11 11:18:00,39.8,30.8,30.43,ESE,112,2.0,3.0,70,0.00,,,0.00,Wunderground v.1.15,2013-01-11 16:18:00,
2013-01-11 11:24:00,39.7,30.4,30.42,East,99,2.0,3.0,69,0.00,,,0.00,Wunderground v.1.15,2013-01-11 16:24:00,
2013-01-11 11:29:00,39.7,30.7,30.41,SSE,147,3.0,4.0,70,0.00,,,0.00,Wunderground v.1.15,2013-01-11 16:29:00,
2013-01-11 11:35:00,39.8,30.5,30.41,SSE,149,4.0,6.0,69,0.00,,,0.00,Wunderground v.1.15,2013-01-11 16:35:00,
2013-01-11 11:41:00,39.7,30.7,30.41,South,174,3.0,3.0,70,0.00,,,0.00,Wunderground v.1.15,2013-01-11 16:41:00,
2013-01-11 11:47:00,39.9,30.5,30.41,ESE,113,2.0,3.0,69,0.00,,,0.00,Wunderground v.1.15,2013-01-11 16:47:00,
2013-01-11 11:53:00,40.2,30.8,30.41,SSE,154,1.0,1.0,69,0.00,,,0.00,Wunderground v.1.15,2013-01-11 16:53:00,
2013-01-11 11:59:00,40.2,30.8,30.41,SSE,162,1.0,3.0,69,0.00,,,0.00,Wunderground v.1.15,2013-01-11 16:59:00,
2013-01-11 12:05:00,40.1,31.1,30.40,South,179,2.0,5.0,70,0.00,,,0.00,Wunderground v.1.15,2013-01-11 17:05:00,
2013-01-11 12:10:00,40.0,31.4,30.40,SSE,158,3.0,3.0,71,0.00,,,0.00,Wunderground v.1.15,2013-01-11 17:10:00,
2013-01-11 12:16:00,40.0,31.4,30.40,South,172,3.0,5.0,71,0.00,,,0.00,Wunderground v.1.15,2013-01-11 17:16:00,
2013-01-11 12:22:00,40.0,31.4,30.39,South,176,5.0,5.0,71,0.00,,,0.00,Wunderground v.1.15,2013-01-11 17:22:00,
2013-01-11 12:28:00,40.1,31.8,30.39,South,177,4.0,5.0,72,0.00,,,0.00,Wunderground v.1.15,2013-01-11 17:28:00,
2013-01-11 12:33:00,40.2,31.9,30.38,South,177,4.0,6.0,72,0.00,,,0.00,Wunderground v.1.15,2013-01-11 17:33:00,
2013-01-11 12:39:00,40.1,31.8,30.39,South,177,4.0,6.0,72,0.00,,,0.00,Wunderground v.1.15,2013-01-11 17:39:00,
2013-01-11 12:45:00,40.1,31.8,30.39,SSE,164,3.0,4.0,72,0.00,,,0.00,Wunderground v.1.15,2013-01-11 17:45:00,
2013-01-11 12:51:00,40.2,31.9,30.40,SSE,164,1.0,2.0,72,0.00,,,0.00,Wunderground v.1.15,2013-01-11 17:51:00,
2013-01-11 12:57:00,40.4,31.7,30.39,South,181,1.0,2.0,71,0.00,,,0.00,Wunderground v.1.15,2013-01-11 17:57:00,
2013-01-11 13:03:00,40.3,32.0,30.39,South,180,1.0,2.0,72,0.00,,,0.00,Wunderground v.1.15,2013-01-11 18:03:00,
2013-01-11 13:09:00,40.4,32.1,30.38,South,180,1.0,2.0,72,0.00,,,0.00,Wunderground v.1.15,2013-01-11 18:09:00,
2013-01-11 13:14:00,40.3,32.0,30.37,South,179,2.0,3.0,72,0.00,,,0.00,Wunderground v.1.15,2013-01-11 18:14:00,
2013-01-11 13:20:00,40.3,32.3,30.37,South,181,3.0,3.0,73,0.00,,,0.00,Wunderground v.1.15,2013-01-11 18:20:00,
2013-01-11 13:26:00,40.4,32.1,30.37,South,188,2.0,3.0,72,0.00,,,0.00,Wunderground v.1.15,2013-01-11 18:26:00,
2013-01-11 13:32:00,40.5,32.5,30.37,SW,214,2.0,2.0,73,0.00,,,0.00,Wunderground v.1.15,2013-01-11 18:32:00,
2013-01-11 13:37:00,40.7,32.4,30.38,SW,223,2.0,4.0,72,0.00,,,0.00,Wunderground v.1.15,2013-01-11 18:37:00,
2013-01-11 13:43:00,40.7,32.4,30.38,SW,224,3.0,5.0,72,0.00,,,0.00,Wunderground v.1.15,2013-01-11 18:43:00,
2013-01-11 13:49:00,40.6,32.6,30.37,SW,222,2.0,5.0,73,0.00,,,0.00,Wunderground v.1.15,2013-01-11 18:49:00,
2013-01-11 13:55:00,40.4,32.4,30.37,SW,214,1.0,2.0,73,0.00,,,0.00,Wunderground v.1.15,2013-01-11 18:55:00,
2013-01-11 14:01:00,40.3,32.7,30.37,SW,214,1.0,1.0,74,0.00,,,0.00,Wunderground v.1.15,2013-01-11 19:01:00,
2013-01-11 14:07:00,40.4,32.4,30.36,SSW,209,1.0,2.0,73,0.00,,,0.00,Wunderground v.1.15,2013-01-11 19:07:00,
2013-01-11 14:13:00,40.4,32.4,30.36,SSW,209,1.0,1.0,73,0.00,,,0.00,Wunderground v.1.15,2013-01-11 19:13:00,
2013-01-11 14:18:00,40.3,32.7,30.36,SSW,197,1.0,3.0,74,0.00,,,0.00,Wunderground v.1.15,2013-01-11 19:18:00,
2013-01-11 14:24:00,40.2,32.6,30.36,SSW,199,2.0,3.0,74,0.00,,,0.00,Wunderground v.1.15,2013-01-11 19:24:00,
2013-01-11 14:30:00,40.2,32.6,30.36,SSW,204,2.0,2.0,74,0.00,,,0.00,Wunderground v.1.15,2013-01-11 19:30:00,
2013-01-11 14:36:00,40.3,32.7,30.35,SSW,204,2.0,2.0,74,0.00,,,0.00,Wunderground v.1.15,2013-01-11 19:36:00,
2013-01-11 14:41:00,40.4,32.4,30.35,SSW,204,1.0,2.0,73,0.00,,,0.00,Wunderground v.1.15,2013-01-11 19:41:00,
2013-01-11 14:47:00,40.4,32.4,30.35,SSW,204,1.0,2.0,73,0.00,,,0.00,Wunderground v.1.15,2013-01-11 19:47:00,
2013-01-11 14:53:00,40.3,32.7,30.35,SSW,204,0.0,1.0,74,0.00,,,0.00,Wunderground v.1.15,2013-01-11 19:53:00,
2013-01-11 14:59:00,40.2,32.6,30.35,SSW,204,0.0,3.0,74,0.00,,,0.00,Wunderground v.1.15,2013-01-11 19:59:00,
2013-01-11 15:05:00,40.2,32.6,30.35,SSW,204,0.0,1.0,74,0.00,,,0.00,Wunderground v.1.15,2013-01-11 20:05:00,
2013-01-11 15:11:00,40.2,32.6,30.35,SSW,204,0.0,2.0,74,0.00,,,0.00,Wunderground v.1.15,2013-01-11 20:11:00,
2013-01-11 15:17:00,40.2,32.6,30.35,SSW,204,1.0,2.0,74,0.00,,,0.00,Wunderground v.1.15,2013-01-11 20:17:00,
2013-01-11 15:22:00,40.1,32.5,30.34,SSW,204,1.0,3.0,74,0.00,,,0.00,Wunderground v.1.15,2013-01-11 20:22:00,
2013-01-11 15:28:00,40.0,32.7,30.33,SSW,204,1.0,3.0,75,0.00,,,0.00,Wunderground v.1.15,2013-01-11 20:28:00,
2013-01-11 15:34:00,39.7,32.8,30.33,SSW,204,1.0,2.0,76,0.00,,,0.00,Wunderground v.1.15,2013-01-11 20:34:00,
2013-01-11 15:40:00,39.6,32.7,30.33,SSW,204,1.0,1.0,76,0.00,,,0.00,Wunderground v.1.15,2013-01-11 20:40:00,
2013-01-11 15:45:00,39.6,32.7,30.32,SSW,204,0.0,2.0,76,0.00,,,0.00,Wunderground v.1.15,2013-01-11 20:45:00,
2013-01-11 15:51:00,39.4,32.8,30.33,SSW,204,1.0,2.0,77,0.00,,,0.00,Wunderground v.1.15,2013-01-11 20:51:00,
2013-01-11 15:57:00,39.4,32.8,30.33,SSW,204,0.0,2.0,77,0.00,,,0.00,Wunderground v.1.15,2013-01-11 20:57:00,
2013-01-11 16:03:00,39.4,32.8,30.32,SSW,204,0.0,1.0,77,0.00,,,0.00,Wunderground v.1.15,2013-01-11 21:03:00,
2013-01-11 16:09:00,39.4,32.8,30.32,SSW,204,0.0,1.0,77,0.00,,,0.00,Wunderground v.1.15,2013-01-11 21:09:00,
2013-01-11 16:15:00,39.3,33.0,30.31,SSW,204,1.0,1.0,78,0.00,,,0.00,Wunderground v.1.15,2013-01-11 21:15:00,
2013-01-11 16:21:00,39.1,32.8,30.31,SSW,204,1.0,1.0,78,0.00,,,0.00,Wunderground v.1.15,2013-01-11 21:21:00,
2013-01-11 16:27:00,39.0,32.7,30.31,SSW,204,0.0,1.0,78,0.00,,,0.00,Wunderground v.1.15,2013-01-11 21:27:00,
2013-01-11 16:32:00,39.0,32.7,30.31,SSW,204,0.0,1.0,78,0.00,,,0.00,Wunderground v.1.15,2013-01-11 21:32:00,
2013-01-11 16:38:00,38.9,32.9,30.31,SSW,204,0.0,1.0,79,0.00,,,0.00,Wunderground v.1.15,2013-01-11 21:38:00,
2013-01-11 16:44:00,38.8,32.8,30.31,SSW,204,0.0,2.0,79,0.00,,,0.00,Wunderground v.1.15,2013-01-11 21:44:00,
2013-01-11 16:50:00,39.1,33.1,30.31,SSW,204,2.0,3.0,79,0.00,,,0.00,Wunderground v.1.15,2013-01-11 21:50:00,
2013-01-11 16:56:00,39.2,33.2,30.31,SSW,204,2.0,3.0,79,0.00,,,0.00,Wunderground v.1.15,2013-01-11 21:56:00,
2013-01-11 17:02:00,39.2,33.2,30.31,SSW,204,1.0,2.0,79,0.00,,,0.00,Wunderground v.1.15,2013-01-11 22:02:00,
2013-01-11 17:08:00,39.1,33.1,30.31,SSW,204,1.0,2.0,79,0.00,,,0.00,Wunderground v.1.15,2013-01-11 22:08:00,
2013-01-11 17:13:00,39.1,33.5,30.31,SSW,204,1.0,2.0,80,0.00,,,0.00,Wunderground v.1.15,2013-01-11 22:13:00,
2013-01-11 17:19:00,39.1,33.5,30.30,SSW,204,1.0,2.0,80,0.00,,,0.00,Wunderground v.1.15,2013-01-11 22:19:00,
2013-01-11 17:25:00,39.0,33.4,30.30,SSW,204,1.0,1.0,80,0.00,,,0.00,Wunderground v.1.15,2013-01-11 22:25:00,
2013-01-11 17:31:00,39.0,33.4,30.30,SSW,204,0.0,1.0,80,0.00,,,0.00,Wunderground v.1.15,2013-01-11 22:31:00,
2013-01-11 17:37:00,38.9,33.6,30.30,SSW,204,0.0,1.0,81,0.00,,,0.00,Wunderground v.1.15,2013-01-11 22:37:00,
2013-01-11 17:43:00,39.0,33.7,30.30,SSW,204,0.0,1.0,81,0.00,,,0.00,Wunderground v.1.15,2013-01-11 22:43:00,
2013-01-11 17:49:00,38.9,33.6,30.30,SSW,204,0.0,1.0,81,0.00,,,0.00,Wunderground v.1.15,2013-01-11 22:49:00,
2013-01-11 17:55:00,38.9,33.6,30.30,SSW,204,0.0,1.0,81,0.00,,,0.00,Wunderground v.1.15,2013-01-11 22:55:00,
2013-01-11 18:00:00,38.9,33.6,30.30,SSW,204,0.0,1.0,81,0.00,,,0.00,Wunderground v.1.15,2013-01-11 23:00:00,
2013-01-11 18:06:00,39.0,33.7,30.30,SSW,204,0.0,1.0,81,0.00,,,0.00,Wunderground v.1.15,2013-01-11 23:06:00,
2013-01-11 18:12:00,39.1,33.8,30.30,SSW,204,0.0,1.0,81,0.00,,,0.00,Wunderground v.1.15,2013-01-11 23:12:00,
2013-01-11 18:17:00,39.2,33.9,30.29,SSW,204,1.0,1.0,81,0.00,,,0.00,Wunderground v.1.15,2013-01-11 23:17:00,
2013-01-11 18:23:00,39.1,33.8,30.29,SSW,204,1.0,1.0,81,0.00,,,0.00,Wunderground v.1.15,2013-01-11 23:23:00,
2013-01-11 18:28:00,39.1,34.1,30.29,SSW,204,0.0,1.0,82,0.00,,,0.00,Wunderground v.1.15,2013-01-11 23:28:00,
2013-01-11 18:34:00,39.0,34.0,30.29,SSW,204,0.0,1.0,82,0.00,,,0.00,Wunderground v.1.15,2013-01-11 23:34:00,
2013-01-11 18:40:00,38.9,34.2,30.29,SSW,204,0.0,1.0,83,0.00,,,0.00,Wunderground v.1.15,2013-01-11 23:40:00,
2013-01-11 18:45:00,38.9,33.9,30.28,SSW,204,1.0,2.0,82,0.00,,,0.00,Wunderground v.1.15,2013-01-11 23:45:00,
2013-01-11 18:51:00,38.8,34.1,30.28,SSW,204,1.0,1.0,83,0.00,,,0.00,Wunderground v.1.15,2013-01-11 23:51:00,
2013-01-11 18:57:00,38.9,34.2,30.28,SSW,204,0.0,2.0,83,0.00,,,0.00,Wunderground v.1.15,2013-01-11 23:57:00,
2013-01-11 19:03:00,38.9,34.2,30.27,SSW,204,1.0,2.0,83,0.00,,,0.00,Wunderground v.1.15,2013-01-12 00:03:00,
2013-01-11 19:08:00,38.8,34.1,30.27,SSW,204,1.0,2.0,83,0.00,,,0.00,Wunderground v.1.15,2013-01-12 00:08:00,
2013-01-11 19:14:00,38.9,34.2,30.28,SSW,203,1.0,4.0,83,0.00,,,0.00,Wunderground v.1.15,2013-01-12 00:14:00,
2013-01-11 19:20:00,39.0,34.3,30.27,SSW,204,2.0,2.0,83,0.00,,,0.00,Wunderground v.1.15,2013-01-12 00:20:00,
2013-01-11 19:26:00,39.0,34.0,30.27,South,182,1.0,3.0,82,0.00,,,0.00,Wunderground v.1.15,2013-01-12 00:26:00,
2013-01-11 19:31:00,39.1,34.1,30.27,South,189,2.0,2.0,82,0.00,,,0.00,Wunderground v.1.15,2013-01-12 00:31:00,
2013-01-11 19:37:00,39.1,34.1,30.27,South,188,2.0,2.0,82,0.00,,,0.00,Wunderground v.1.15,2013-01-12 00:37:00,
2013-01-11 19:43:00,39.1,34.1,30.27,SW,217,2.0,4.0,82,0.00,,,0.00,Wunderground v.1.15,2013-01-12 00:43:00,
2013-01-11 19:49:00,39.1,34.4,30.27,South,187,2.0,5.0,83,0.00,,,0.00,Wunderground v.1.15,2013-01-12 00:49:00,
2013-01-11 19:55:00,39.0,34.3,30.27,SSW,194,2.0,6.0,83,0.00,,,0.00,Wunderground v.1.15,2013-01-12 00:55:00,
2013-01-11 20:01:00,39.0,34.6,30.27,South,175,2.0,3.0,84,0.00,,,0.00,Wunderground v.1.15,2013-01-12 01:01:00,
2013-01-11 20:07:00,38.9,34.5,30.27,South,187,2.0,5.0,84,0.00,,,0.00,Wunderground v.1.15,2013-01-12 01:07:00,
2013-01-11 20:12:00,38.8,34.4,30.27,SSW,198,1.0,1.0,84,0.00,,,0.00,Wunderground v.1.15,2013-01-12 01:12:00,
2013-01-11 20:18:00,38.8,34.7,30.27,SW,220,1.0,2.0,85,0.00,,,0.00,Wunderground v.1.15,2013-01-12 01:18:00,
2013-01-11 20:24:00,38.8,34.7,30.26,SSW,201,1.0,1.0,85,0.00,,,0.01,Wunderground v.1.15,2013-01-12 01:24:00,
2013-01-11 20:30:00,38.7,34.9,30.25,South,172,1.0,4.0,86,0.08,,,0.02,Wunderground v.1.15,2013-01-12 01:30:00,
2013-01-11 20:35:00,38.7,35.2,30.25,South,176,3.0,5.0,87,0.07,,,0.02,Wunderground v.1.15,2013-01-12 01:35:00,
2013-01-11 20:41:00,38.6,35.4,30.25,SSW,207,3.0,3.0,88,0.05,,,0.03,Wunderground v.1.15,2013-01-12 01:41:00,
2013-01-11 20:47:00,38.5,35.3,30.25,SW,219,2.0,3.0,88,0.05,,,0.03,Wunderground v.1.15,2013-01-12 01:47:00,
2013-01-11 20:53:00,38.4,35.4,30.26,SW,215,2.0,3.0,89,0.04,,,0.03,Wunderground v.1.15,2013-01-12 01:53:00,
2013-01-11 20:59:00,38.4,35.4,30.25,SW,218,2.0,3.0,89,0.00,,,0.03,Wunderground v.1.15,2013-01-12 01:59:00,
2013-01-11 21:05:00,38.3,35.6,30.25,South,186,2.0,4.0,90,0.00,,,0.03,Wunderground v.1.15,2013-01-12 02:05:00,
2013-01-11 21:11:00,38.3,35.6,30.25,South,187,2.0,2.0,90,0.00,,,0.04,Wunderground v.1.15,2013-01-12 02:11:00,
2013-01-11 21:16:00,38.3,35.6,30.25,SSW,206,2.0,2.0,90,0.00,,,0.04,Wunderground v.1.15,2013-01-12 02:16:00,
2013-01-11 21:22:00,38.2,35.8,30.25,SSW,211,2.0,4.0,91,0.00,,,0.04,Wunderground v.1.15,2013-01-12 02:22:00,
2013-01-11 21:28:00,38.2,35.8,30.25,SSW,212,2.0,4.0,91,0.04,,,0.05,Wunderground v.1.15,2013-01-12 02:28:00,
2013-01-11 21:34:00,38.2,35.8,30.25,South,183,3.0,4.0,91,0.04,,,0.05,Wunderground v.1.15,2013-01-12 02:34:00,
2013-01-11 21:39:00,38.1,35.7,30.24,SSW,209,2.0,4.0,91,0.04,,,0.06,Wunderground v.1.15,2013-01-12 02:39:00,
2013-01-11 21:45:00,38.1,36.0,30.24,South,171,3.0,5.0,92,0.04,,,0.06,Wunderground v.1.15,2013-01-12 02:45:00,
2013-01-11 21:51:00,38.1,36.0,30.24,SSW,200,3.0,6.0,92,0.04,,,0.06,Wunderground v.1.15,2013-01-12 02:51:00,
2013-01-11 21:57:00,38.1,36.3,30.24,SSE,164,2.0,6.0,93,0.00,,,0.06,Wunderground v.1.15,2013-01-12 02:57:00,
2013-01-11 22:03:00,38.1,36.3,30.24,South,177,3.0,6.0,93,0.00,,,0.07,Wunderground v.1.15,2013-01-12 03:03:00,
2013-01-11 22:09:00,38.1,36.3,30.24,SSW,192,4.0,6.0,93,0.00,,,0.07,Wunderground v.1.15,2013-01-12 03:09:00,
2013-01-11 22:15:00,38.0,36.2,30.24,South,178,3.0,4.0,93,0.00,,,0.07,Wunderground v.1.15,2013-01-12 03:15:00,
2013-01-11 22:20:00,38.0,36.2,30.24,South,179,2.0,2.0,93,0.00,,,0.07,Wunderground v.1.15,2013-01-12 03:20:00,
2013-01-11 22:26:00,38.0,36.4,30.24,SSW,208,3.0,5.0,94,0.00,,,0.07,Wunderground v.1.15,2013-01-12 03:26:00,
2013-01-11 22:32:00,38.0,36.4,30.23,SSW,208,3.0,4.0,94,0.00,,,0.07,Wunderground v.1.15,2013-01-12 03:32:00,
2013-01-11 22:38:00,38.0,36.4,30.23,South,191,3.0,4.0,94,0.00,,,0.07,Wunderground v.1.15,2013-01-12 03:38:00,
2013-01-11 22:43:00,38.0,36.4,30.23,South,177,3.0,4.0,94,0.00,,,0.07,Wunderground v.1.15,2013-01-12 03:43:00,
2013-01-11 22:49:00,38.0,36.4,30.23,South,172,3.0,5.0,94,0.00,,,0.07,Wunderground v.1.15,2013-01-12 03:49:00,
2013-01-11 22:55:00,38.2,36.6,30.23,South,190,3.0,4.0,94,0.00,,,0.07,Wunderground v.1.15,2013-01-12 03:55:00,
2013-01-11 23:01:00,38.1,36.5,30.24,SSW,194,2.0,3.0,94,0.00,,,0.07,Wunderground v.1.15,2013-01-12 04:01:00,
2013-01-11 23:07:00,38.1,36.5,30.24,SSW,206,1.0,4.0,94,0.00,,,0.07,Wunderground v.1.15,2013-01-12 04:07:00,
2013-01-11 23:13:00,38.1,36.8,30.23,SSW,203,2.0,5.0,95,0.00,,,0.07,Wunderground v.1.15,2013-01-12 04:13:00,
2013-01-11 23:19:00,38.1,36.5,30.23,South,178,2.0,5.0,94,0.00,,,0.08,Wunderground v.1.15,2013-01-12 04:19:00,
2013-01-11 23:24:00,38.1,36.8,30.23,SW,234,1.0,2.0,95,0.00,,,0.08,Wunderground v.1.15,2013-01-12 04:24:00,
2013-01-11 23:30:00,38.2,36.9,30.24,SSW,203,2.0,5.0,95,0.07,,,0.09,Wunderground v.1.15,2013-01-12 04:30:00,
2013-01-11 23:36:00,38.2,36.9,30.24,SW,223,2.0,5.0,95,0.06,,,0.09,Wunderground v.1.15,2013-01-12 04:36:00,
2013-01-11 23:42:00,38.1,36.8,30.24,SW,226,2.0,2.0,95,0.04,,,0.10,Wunderground v.1.15,2013-01-12 04:42:00,
2013-01-11 23:47:00,38.0,36.7,30.24,SW,226,1.0,2.0,95,0.04,,,0.10,Wunderground v.1.15,2013-01-12 04:47:00,
2013-01-11 23:53:00,38.0,36.7,30.23,SW,222,1.0,2.0,95,0.04,,,0.10,Wunderground v.1.15,2013-01-12 04:53:00,
2013-01-11 23:59:00,38.1,36.8,30.23,SW,218,2.0,5.0,95,0.00,,,0.10,Wunderground v.1.15,2013-01-12 04:59:00,